createdAt,value
2023-01-25T00:00:01.195Z,102328.94
2023-01-25T00:02:33.283Z,102280.28
2023-01-25T00:05:05.721Z,102340.00
2023-01-25T00:07:37.870Z,102332.31
2023-01-25T00:10:10.519Z,102328.91
2023-01-25T00:12:42.496Z,102326.34
2023-01-25T00:15:14.594Z,102349.38
2023-01-25T00:17:46.532Z,102332.34
2023-01-25T00:20:18.700Z,102319.56
2023-01-25T00:22:50.685Z,102333.19
2023-01-25T00:25:22.583Z,102335.78
2023-01-25T00:27:54.468Z,102340.88
2023-01-25T00:30:26.421Z,102338.34
2023-01-25T00:33:06.846Z,102328.94
2023-01-25T00:35:39.235Z,102302.50
2023-01-25T00:38:43.738Z,102331.50
2023-01-25T00:41:15.735Z,102334.06
2023-01-25T00:43:47.667Z,102322.97
2023-01-25T00:46:20.018Z,102280.31
2023-01-25T00:48:55.539Z,102322.09
2023-01-25T00:51:27.728Z,102319.56
2023-01-25T00:53:59.687Z,102299.91
2023-01-25T00:56:31.660Z,102289.69
2023-01-25T00:59:03.700Z,102293.94
2023-01-25T01:01:35.905Z,102292.25
2023-01-25T01:04:08.143Z,102314.44
2023-01-25T01:06:40.917Z,102317.00
2023-01-25T01:09:15.964Z,102274.34
2023-01-25T01:11:48.433Z,102303.38
2023-01-25T01:14:21.826Z,102295.66
2023-01-25T01:16:53.732Z,102315.28
2023-01-25T01:19:25.748Z,102301.63
2023-01-25T01:21:57.723Z,102309.31
2023-01-25T01:24:29.840Z,102275.19
2023-01-25T01:27:01.931Z,102300.75
2023-01-25T01:29:34.100Z,102297.38
2023-01-25T01:32:06.436Z,102297.38
2023-01-25T01:34:38.455Z,102311.00
2023-01-25T01:37:10.616Z,102301.63
2023-01-25T01:39:42.581Z,102300.78
2023-01-25T01:42:14.575Z,102259.81
2023-01-25T01:44:54.488Z,102307.59
2023-01-25T01:47:31.476Z,102305.91
2023-01-25T01:50:06.903Z,102226.56
2023-01-25T01:52:39.162Z,102290.56
2023-01-25T01:55:18.864Z,102276.03
2023-01-25T01:57:56.084Z,102296.53
2023-01-25T02:00:33.034Z,102275.19
2023-01-25T02:03:05.036Z,102283.69
2023-01-25T02:06:04.934Z,102291.38
2023-01-25T02:08:41.145Z,102295.66
2023-01-25T02:11:13.567Z,102299.91
2023-01-25T02:13:45.632Z,102271.75
2023-01-25T02:16:21.510Z,102291.38
2023-01-25T02:18:56.444Z,102291.41
2023-01-25T02:21:37.096Z,102287.97
2023-01-25T02:24:18.770Z,102285.41
2023-01-25T02:26:50.815Z,102240.19
2023-01-25T02:29:24.518Z,102251.28
2023-01-25T02:32:14.725Z,102199.19
2023-01-25T02:34:46.730Z,102235.03
2023-01-25T02:37:18.712Z,102264.91
2023-01-25T02:39:51.653Z,102266.63
2023-01-25T02:42:23.738Z,102204.31
2023-01-25T02:44:55.775Z,102253.00
2023-01-25T02:47:27.708Z,102248.72
2023-01-25T02:49:59.790Z,102250.41
2023-01-25T02:52:31.846Z,102256.38
2023-01-25T02:55:04.037Z,102247.00
2023-01-25T02:57:35.980Z,102247.84
2023-01-25T03:00:08.883Z,102215.41
2023-01-25T03:02:40.854Z,102238.44
2023-01-25T03:05:12.985Z,102236.75
2023-01-25T03:07:45.127Z,102236.78
2023-01-25T03:10:17.246Z,102230.75
2023-01-25T03:12:49.184Z,102255.47
2023-01-25T03:15:21.120Z,102246.97
2023-01-25T03:17:53.036Z,102250.41
2023-01-25T03:20:25.177Z,102241.00
2023-01-25T03:22:57.130Z,102243.53
2023-01-25T03:25:29.197Z,102221.38
2023-01-25T03:28:01.141Z,102186.44
2023-01-25T03:30:33.134Z,102212.03
2023-01-25T03:33:05.173Z,102213.69
2023-01-25T03:35:37.131Z,102217.13
2023-01-25T03:38:09.037Z,102189.00
2023-01-25T03:40:40.972Z,102183.88
2023-01-25T03:43:13.284Z,102171.06
2023-01-25T03:45:45.390Z,102180.47
2023-01-25T03:48:17.445Z,102200.97
2023-01-25T03:50:54.156Z,102210.34
2023-01-25T03:53:30.650Z,102178.81
2023-01-25T03:56:12.004Z,102194.16
2023-01-25T03:58:43.906Z,102187.28
2023-01-25T04:01:15.914Z,102163.44
2023-01-25T04:03:47.919Z,102189.88
2023-01-25T04:06:19.859Z,102131.88
2023-01-25T04:08:52.335Z,102180.50
2023-01-25T04:11:24.325Z,102195.84
2023-01-25T04:13:56.249Z,102186.47
2023-01-25T04:16:30.762Z,102186.47
2023-01-25T04:19:02.869Z,102150.56
2023-01-25T04:21:34.796Z,102192.34
2023-01-25T04:24:07.051Z,102144.59
2023-01-25T04:26:39.177Z,102182.16
2023-01-25T04:29:11.176Z,102179.59
2023-01-25T04:31:43.268Z,102155.72
2023-01-25T04:34:15.277Z,102163.41
2023-01-25T04:36:47.389Z,102186.47
2023-01-25T04:39:19.695Z,102180.47
2023-01-25T04:41:51.621Z,102170.25
2023-01-25T04:44:23.609Z,102185.59
2023-01-25T04:46:55.543Z,102164.28
2023-01-25T04:49:27.458Z,102144.66
2023-01-25T04:51:59.328Z,102182.19
2023-01-25T04:54:31.342Z,102169.41
2023-01-25T04:57:04.063Z,102146.31
2023-01-25T04:59:36.024Z,102176.19
2023-01-25T05:02:07.938Z,102140.38
2023-01-25T05:04:39.917Z,102171.94
2023-01-25T05:07:12.042Z,102150.63
2023-01-25T05:09:43.993Z,102147.22
2023-01-25T05:12:15.968Z,102143.78
2023-01-25T05:14:47.935Z,102175.38
2023-01-25T05:17:20.103Z,102155.72
2023-01-25T05:19:52.116Z,102172.78
2023-01-25T05:22:24.365Z,102162.56
2023-01-25T05:24:56.414Z,102116.53
2023-01-25T05:27:28.384Z,102125.94
2023-01-25T05:30:00.370Z,102143.78
2023-01-25T05:32:32.650Z,102147.19
2023-01-25T05:35:04.885Z,102142.94
2023-01-25T05:37:36.840Z,102131.91
2023-01-25T05:40:09.666Z,102139.56
2023-01-25T05:42:42.178Z,102102.06
2023-01-25T05:45:14.096Z,102113.94
2023-01-25T05:47:46.091Z,102138.66
2023-01-25T05:50:18.251Z,102141.25
2023-01-25T05:52:50.370Z,102073.03
2023-01-25T05:55:22.352Z,102156.59
2023-01-25T05:57:57.427Z,102136.03
2023-01-25T06:00:29.427Z,102140.31
2023-01-25T06:03:02.646Z,102151.41
2023-01-25T06:05:34.662Z,102116.41
2023-01-25T06:08:06.621Z,102138.63
2023-01-25T06:10:38.632Z,102159.91
2023-01-25T06:13:10.539Z,102139.44
2023-01-25T06:15:42.645Z,102158.06
2023-01-25T06:18:14.671Z,102137.63
2023-01-25T06:20:46.810Z,102154.69
2023-01-25T06:23:19.134Z,102149.63
2023-01-25T06:25:51.423Z,102159.91
2023-01-25T06:28:23.323Z,102130.88
2023-01-25T06:30:55.412Z,102107.06
2023-01-25T06:33:27.354Z,102136.94
2023-01-25T06:36:05.599Z,102127.44
2023-01-25T06:38:37.645Z,102061.88
2023-01-25T06:41:12.282Z,102127.56
2023-01-25T06:43:44.349Z,102125.88
2023-01-25T06:46:16.395Z,102110.50
2023-01-25T06:48:48.390Z,102129.25
2023-01-25T06:51:20.441Z,102142.91
2023-01-25T06:53:52.443Z,102115.63
2023-01-25T06:56:26.171Z,102121.63
2023-01-25T06:58:58.131Z,102131.03
2023-01-25T07:01:30.765Z,102107.13
2023-01-25T07:04:02.852Z,102124.22
2023-01-25T07:06:35.552Z,102121.66
2023-01-25T07:09:13.216Z,102101.16
2023-01-25T07:11:45.422Z,102104.59
2023-01-25T07:14:17.658Z,102119.06
2023-01-25T07:16:49.611Z,102119.88
2023-01-25T07:19:21.660Z,102073.88
2023-01-25T07:21:54.107Z,102107.13
2023-01-25T07:24:27.602Z,102076.44
2023-01-25T07:26:59.755Z,102066.19
2023-01-25T07:29:31.697Z,102092.66
2023-01-25T07:32:03.842Z,102084.16
2023-01-25T07:34:36.209Z,102081.53
2023-01-25T07:37:09.592Z,102065.41
2023-01-25T07:39:48.417Z,102082.44
2023-01-25T07:42:20.272Z,102059.38
2023-01-25T07:44:52.337Z,102059.44
2023-01-25T07:47:24.444Z,102064.53
2023-01-25T07:49:56.407Z,102088.41
2023-01-25T07:52:28.338Z,102069.56
2023-01-25T07:55:00.302Z,102086.66
2023-01-25T07:57:32.228Z,102075.56
2023-01-25T08:00:04.702Z,102084.13
2023-01-25T08:02:36.960Z,102093.53
2023-01-25T08:05:09.855Z,102094.38
2023-01-25T08:07:41.987Z,102073.09
2023-01-25T08:10:14.416Z,102087.59
2023-01-25T08:12:46.981Z,102056.06
2023-01-25T08:15:18.946Z,102048.38
2023-01-25T08:17:50.841Z,102091.84
2023-01-25T08:20:22.952Z,102086.66
2023-01-25T08:22:54.872Z,102084.88
2023-01-25T08:25:27.465Z,102089.19
2023-01-25T08:27:59.380Z,102067.88
2023-01-25T08:30:31.842Z,102076.44
2023-01-25T08:33:04.051Z,102071.34
2023-01-25T08:35:37.130Z,102076.47
2023-01-25T08:38:09.093Z,102056.88
2023-01-25T08:40:41.088Z,102062.81
2023-01-25T08:43:15.134Z,102055.16
2023-01-25T08:45:56.088Z,102054.34
2023-01-25T08:48:28.303Z,102062.88
2023-01-25T08:51:01.126Z,102048.31
2023-01-25T08:53:33.470Z,102049.25
2023-01-25T08:56:10.436Z,102059.41
2023-01-25T08:58:47.527Z,102061.16
2023-01-25T09:01:20.676Z,101990.38
2023-01-25T09:03:54.402Z,102004.06
2023-01-25T09:06:26.405Z,102056.03
2023-01-25T09:09:00.541Z,102057.78
2023-01-25T09:11:35.021Z,102060.28
2023-01-25T09:14:07.263Z,102050.06
2023-01-25T09:16:39.208Z,102028.72
2023-01-25T09:19:11.561Z,102040.69
2023-01-25T09:21:43.581Z,102017.72
2023-01-25T09:24:15.802Z,102035.63
2023-01-25T09:26:56.013Z,102027.09
2023-01-25T09:29:31.304Z,102011.75
2023-01-25T09:32:03.745Z,102034.78
2023-01-25T09:34:36.875Z,102034.78
2023-01-25T09:37:08.811Z,102025.41
2023-01-25T09:39:40.767Z,101998.16
2023-01-25T09:42:20.576Z,102032.25
2023-01-25T09:45:04.693Z,102027.13
2023-01-25T09:47:48.894Z,102019.47
2023-01-25T09:50:37.384Z,102009.25
2023-01-25T09:53:33.616Z,102009.25
2023-01-25T09:56:26.484Z,101993.88
2023-01-25T09:59:03.666Z,101997.31
2023-01-25T10:01:47.324Z,101993.91
2023-01-25T10:04:23.382Z,101964.94
2023-01-25T10:07:12.797Z,101978.59
2023-01-25T10:09:53.756Z,101986.25
2023-01-25T10:12:28.984Z,101979.44
2023-01-25T10:15:00.958Z,101962.41
2023-01-25T10:17:39.224Z,101984.56
2023-01-25T10:21:00.027Z,101976.00
2023-01-25T10:24:01.186Z,101965.81
2023-01-25T10:26:38.891Z,101949.63
2023-01-25T10:29:19.951Z,101918.97
2023-01-25T10:31:54.545Z,101962.34
2023-01-25T10:34:30.117Z,101949.56
2023-01-25T10:37:10.832Z,101945.31
2023-01-25T10:39:58.619Z,101942.75
2023-01-25T10:42:49.275Z,101884.06
2023-01-25T10:45:21.368Z,101939.38
2023-01-25T10:48:03.704Z,101927.47
2023-01-25T10:50:50.008Z,101924.00
2023-01-25T10:53:25.427Z,101893.34
2023-01-25T10:56:11.573Z,101929.16
2023-01-25T10:58:47.072Z,101926.63
2023-01-25T11:01:28.966Z,101923.22
2023-01-25T11:04:02.299Z,101928.31
2023-01-25T11:06:46.759Z,101930.88
2023-01-25T11:09:21.861Z,101916.38
2023-01-25T11:12:03.090Z,101901.03
2023-01-25T11:14:35.331Z,101899.34
2023-01-25T11:17:31.939Z,101892.50
2023-01-25T11:20:18.133Z,101891.66
2023-01-25T11:22:55.762Z,101883.91
2023-01-25T11:25:29.192Z,101879.63
2023-01-25T11:28:19.843Z,101866.09
2023-01-25T11:30:53.190Z,101868.69
2023-01-25T11:33:27.377Z,101856.69
2023-01-25T11:36:14.246Z,101866.91
2023-01-25T11:39:24.549Z,101869.53
2023-01-25T11:42:29.835Z,101866.16
2023-01-25T11:45:29.578Z,101872.97
2023-01-25T11:48:43.824Z,101865.31
2023-01-25T11:51:39.511Z,101868.72
2023-01-25T11:54:36.319Z,101863.56
2023-01-25T11:57:26.695Z,101864.44
2023-01-25T12:00:10.935Z,101855.13
2023-01-25T12:02:47.109Z,101861.03
2023-01-25T12:05:37.602Z,101856.72
2023-01-25T12:08:15.652Z,101842.25
2023-01-25T12:11:14.364Z,101829.47
2023-01-25T12:14:03.488Z,101811.59
2023-01-25T12:16:45.135Z,101828.56
2023-01-25T12:19:39.619Z,101768.28
2023-01-25T12:22:50.187Z,101804.75
2023-01-25T12:25:29.867Z,101808.16
2023-01-25T12:28:21.179Z,101813.28
2023-01-25T12:30:59.619Z,101782.78
2023-01-25T12:33:47.711Z,101809.97
2023-01-25T12:36:30.945Z,101801.44
2023-01-25T12:39:16.789Z,101802.34
2023-01-25T12:41:58.500Z,101796.31
2023-01-25T12:44:45.315Z,101780.16
2023-01-25T12:47:29.150Z,101785.22
2023-01-25T12:50:26.547Z,101785.16
2023-01-25T12:53:14.002Z,101752.88
2023-01-25T12:55:48.000Z,101774.19
2023-01-25T12:58:36.944Z,101775.03
2023-01-25T13:01:23.279Z,101778.28
2023-01-25T13:04:01.313Z,101780.00
2023-01-25T13:06:49.059Z,101738.44
2023-01-25T13:09:30.304Z,101782.53
2023-01-25T13:12:05.841Z,101769.81
2023-01-25T13:14:41.758Z,101775.81
2023-01-25T13:17:34.181Z,101769.91
2023-01-25T13:20:39.768Z,101769.88
2023-01-25T13:23:32.827Z,101754.56
2023-01-25T13:26:26.318Z,101763.00
2023-01-25T13:29:02.089Z,101740.91
2023-01-25T13:31:51.527Z,101765.53
2023-01-25T13:34:36.545Z,101751.91
2023-01-25T13:37:32.141Z,101756.16
2023-01-25T13:40:34.287Z,101762.91
2023-01-25T13:43:18.848Z,101753.66
2023-01-25T13:45:52.551Z,101751.91
2023-01-25T13:48:28.139Z,101723.00
2023-01-25T13:51:12.925Z,101739.06
2023-01-25T13:53:55.651Z,101720.28
2023-01-25T13:56:35.535Z,101705.81
2023-01-25T13:59:07.779Z,101712.66
2023-01-25T14:01:40.561Z,101677.91
2023-01-25T14:04:12.888Z,101719.53
2023-01-25T14:06:45.642Z,101710.09
2023-01-25T14:09:23.025Z,101720.25
2023-01-25T14:12:01.858Z,101693.97
2023-01-25T14:14:35.774Z,101706.88
2023-01-25T14:17:22.477Z,101701.63
2023-01-25T14:19:55.399Z,101688.97
2023-01-25T14:22:30.233Z,101693.28
2023-01-25T14:25:15.762Z,101696.69
2023-01-25T14:27:50.606Z,101699.09
2023-01-25T14:30:26.376Z,101693.19
2023-01-25T14:33:01.146Z,101696.53
2023-01-25T14:35:56.284Z,101688.81
2023-01-25T14:38:38.572Z,101619.28
2023-01-25T14:41:25.836Z,101682.84
2023-01-25T14:44:02.530Z,101680.34
2023-01-25T14:46:36.713Z,101654.84
2023-01-25T14:49:15.314Z,101675.28
2023-01-25T14:52:10.293Z,101633.63
2023-01-25T14:55:00.866Z,101648.97
2023-01-25T14:57:37.090Z,101642.94
2023-01-25T15:00:22.990Z,101648.97
2023-01-25T15:02:57.969Z,101637.00
2023-01-25T15:05:33.465Z,101630.16
2023-01-25T15:08:08.625Z,101649.72
2023-01-25T15:10:52.648Z,101642.00
2023-01-25T15:13:28.642Z,101642.09
2023-01-25T15:16:02.881Z,101637.78
2023-01-25T15:18:43.881Z,101631.75
2023-01-25T15:21:24.429Z,101600.41
2023-01-25T15:24:05.165Z,101631.88
2023-01-25T15:26:37.151Z,101627.66
2023-01-25T15:29:20.501Z,101625.91
2023-01-25T15:31:52.890Z,101597.97
2023-01-25T15:34:32.819Z,101608.16
2023-01-25T15:37:04.713Z,101614.94
2023-01-25T15:39:36.742Z,101547.00
2023-01-25T15:42:09.472Z,101576.69
2023-01-25T15:44:41.541Z,101598.78
2023-01-25T15:47:13.527Z,101616.50
2023-01-25T15:49:45.473Z,101613.13
2023-01-25T15:52:17.548Z,101602.06
2023-01-25T15:55:00.037Z,101593.63
2023-01-25T15:57:36.849Z,101607.06
2023-01-25T16:00:20.395Z,101593.50
2023-01-25T16:02:52.560Z,101593.44
2023-01-25T16:05:24.556Z,101568.75
2023-01-25T16:07:56.523Z,101589.16
2023-01-25T16:10:28.615Z,101592.50
2023-01-25T16:13:00.732Z,101550.09
2023-01-25T16:15:32.681Z,101563.63
2023-01-25T16:18:05.136Z,101578.91
2023-01-25T16:20:37.098Z,101544.13
2023-01-25T16:23:09.075Z,101550.94
2023-01-25T16:25:42.999Z,101551.78
2023-01-25T16:28:18.246Z,101551.69
2023-01-25T16:30:50.310Z,101550.91
2023-01-25T16:33:25.209Z,101545.72
2023-01-25T16:36:18.308Z,101554.28
2023-01-25T16:38:50.900Z,101539.00
2023-01-25T16:41:22.978Z,101531.34
2023-01-25T16:43:54.952Z,101530.56
2023-01-25T16:46:27.295Z,101544.94
2023-01-25T16:49:05.370Z,101532.22
2023-01-25T16:51:38.316Z,101539.78
2023-01-25T16:54:12.237Z,101541.44
2023-01-25T16:56:44.459Z,101533.84
2023-01-25T16:59:17.442Z,101544.09
2023-01-25T17:01:49.646Z,101540.69
2023-01-25T17:04:21.667Z,101509.31
2023-01-25T17:06:53.643Z,101526.19
2023-01-25T17:09:25.773Z,101524.41
2023-01-25T17:11:57.809Z,101500.75
2023-01-25T17:14:29.729Z,101467.59
2023-01-25T17:17:01.947Z,101505.72
2023-01-25T17:19:33.893Z,101465.06
2023-01-25T17:22:05.877Z,101489.59
2023-01-25T17:24:38.058Z,101493.00
2023-01-25T17:27:10.111Z,101462.47
2023-01-25T17:29:42.102Z,101487.91
2023-01-25T17:32:14.036Z,101487.91
2023-01-25T17:34:46.133Z,101474.41
2023-01-25T17:37:18.098Z,101476.09
2023-01-25T17:39:50.153Z,101486.28
2023-01-25T17:42:22.463Z,101477.00
2023-01-25T17:44:54.407Z,101459.25
2023-01-25T17:47:26.357Z,101448.09
2023-01-25T17:49:58.212Z,101453.25
2023-01-25T17:52:30.183Z,101485.50
2023-01-25T17:55:02.244Z,101469.25
2023-01-25T17:57:35.787Z,101484.44
2023-01-25T18:00:12.170Z,101465.00
2023-01-25T18:02:47.577Z,101468.28
2023-01-25T18:05:20.240Z,101484.31
2023-01-25T18:07:52.165Z,101477.56
2023-01-25T18:10:24.091Z,101409.72
2023-01-25T18:13:04.562Z,101408.13
2023-01-25T18:15:37.124Z,101463.09
2023-01-25T18:18:09.908Z,101455.50
2023-01-25T18:20:41.955Z,101456.25
2023-01-25T18:23:13.882Z,101463.03
2023-01-25T18:25:46.488Z,101457.94
2023-01-25T18:28:18.531Z,101446.09
2023-01-25T18:30:59.456Z,101452.00
2023-01-25T18:33:33.494Z,101443.59
2023-01-25T18:36:05.936Z,101467.28
2023-01-25T18:38:37.909Z,101460.44
2023-01-25T18:41:10.063Z,101460.47
2023-01-25T18:43:42.024Z,101404.59
2023-01-25T18:46:14.221Z,101456.22
2023-01-25T18:48:47.448Z,101450.31
2023-01-25T18:51:19.850Z,101452.81
2023-01-25T18:56:47.342Z,101452.81
2023-01-25T18:59:19.205Z,101429.94
2023-01-25T19:01:51.236Z,101452.75
2023-01-25T19:04:23.191Z,101436.72
2023-01-25T19:06:59.298Z,101458.72
2023-01-25T19:09:31.893Z,101450.16
2023-01-25T19:12:04.368Z,101445.13
2023-01-25T19:14:36.356Z,101434.03
2023-01-25T19:17:08.759Z,101443.41
2023-01-25T19:19:41.289Z,101436.59
2023-01-25T19:22:13.270Z,101420.53
2023-01-25T19:24:45.220Z,101427.16
2023-01-25T19:27:17.239Z,101396.56
2023-01-25T19:29:50.027Z,101435.59
2023-01-25T19:32:21.974Z,101397.66
2023-01-25T19:34:53.934Z,101424.69
2023-01-25T19:37:25.895Z,101402.66
2023-01-25T19:39:57.838Z,101394.09
2023-01-25T19:42:29.759Z,101396.63
2023-01-25T19:45:03.318Z,101397.38
2023-01-25T19:47:35.263Z,101357.69
2023-01-25T19:50:07.872Z,101395.59
2023-01-25T19:52:39.795Z,101388.81
2023-01-25T19:55:12.062Z,101383.81
2023-01-25T19:57:46.327Z,101384.59
2023-01-25T20:00:20.033Z,101377.78
2023-01-25T20:02:52.143Z,101393.03
2023-01-25T20:05:24.258Z,101391.34
2023-01-25T20:07:56.280Z,101366.78
2023-01-25T20:10:28.224Z,101364.25
2023-01-25T20:13:00.279Z,101371.03
2023-01-25T20:15:32.923Z,101354.88
2023-01-25T20:18:04.987Z,101331.16
2023-01-25T20:20:36.920Z,101271.91
2023-01-25T20:23:08.884Z,101352.22
2023-01-25T20:25:41.213Z,101296.38
2023-01-25T20:28:13.199Z,101358.13
2023-01-25T20:30:45.162Z,101352.19
2023-01-25T20:33:18.603Z,101323.38
2023-01-25T20:35:50.585Z,101329.22
2023-01-25T20:38:22.518Z,101331.84
2023-01-25T20:40:59.169Z,101293.75
2023-01-25T20:43:31.746Z,101347.81
2023-01-25T20:46:03.915Z,101340.28
2023-01-25T20:48:37.228Z,101301.38
2023-01-25T20:51:13.358Z,101322.50
2023-01-25T20:53:46.401Z,101337.75
2023-01-25T20:56:20.053Z,101346.22
2023-01-25T20:58:53.061Z,101343.69
2023-01-25T21:01:29.846Z,101341.03
2023-01-25T21:04:01.826Z,101333.50
2023-01-25T21:06:35.604Z,101319.84
2023-01-25T21:09:07.618Z,101326.66
2023-01-25T21:11:39.753Z,101321.50
2023-01-25T21:14:11.726Z,101280.84
2023-01-25T21:16:43.588Z,101324.19
2023-01-25T21:19:15.494Z,101291.06
2023-01-25T21:21:47.365Z,101307.91
2023-01-25T21:24:19.396Z,101291.81
2023-01-25T21:26:51.385Z,101296.78
2023-01-25T21:29:23.362Z,101283.22
2023-01-25T21:31:56.117Z,101300.28
2023-01-25T21:34:28.100Z,101295.22
2023-01-25T21:37:00.289Z,101320.59
2023-01-25T21:39:32.265Z,101294.34
2023-01-25T21:42:04.422Z,101313.72
2023-01-25T21:44:54.800Z,101240.97
2023-01-25T21:47:31.134Z,101254.53
2023-01-25T21:50:21.847Z,101285.84
2023-01-25T21:52:55.817Z,101294.22
2023-01-25T21:55:27.783Z,101270.53
2023-01-25T21:57:59.650Z,101262.03
2023-01-25T22:00:31.611Z,101274.75
2023-01-25T22:03:04.163Z,101299.34
2023-01-25T22:05:36.096Z,101295.00
2023-01-25T22:08:08.007Z,101295.06
2023-01-25T22:10:40.486Z,101250.31
2023-01-25T22:13:13.209Z,101301.78
2023-01-25T22:15:45.270Z,101294.91
2023-01-25T22:18:17.222Z,101299.25
2023-01-25T22:20:49.153Z,101260.41
2023-01-25T22:23:21.100Z,101281.44
2023-01-25T22:26:08.284Z,101305.13
2023-01-25T22:28:50.956Z,101287.34
2023-01-25T22:31:28.988Z,101298.34
2023-01-25T22:34:01.073Z,101266.13
2023-01-25T22:36:33.115Z,101283.09
2023-01-25T22:39:06.041Z,101267.00
2023-01-25T22:41:38.366Z,101283.78
2023-01-25T22:44:10.598Z,101266.00
2023-01-25T22:46:42.568Z,101242.41
2023-01-25T22:49:14.579Z,101262.50
2023-01-25T22:51:46.565Z,101273.56
2023-01-25T22:54:18.571Z,101254.88
2023-01-25T22:56:50.473Z,101265.91
2023-01-25T22:59:22.461Z,101264.16
2023-01-25T23:01:54.494Z,101251.44
2023-01-25T23:04:26.748Z,101233.59
2023-01-25T23:07:03.072Z,101226.81
2023-01-25T23:09:35.037Z,101221.72
2023-01-25T23:12:07.729Z,101241.13
2023-01-25T23:14:51.693Z,101237.78
2023-01-25T23:17:42.882Z,101235.19
2023-01-25T23:20:14.943Z,101203.91
2023-01-25T23:22:47.006Z,101219.97
2023-01-25T23:25:19.097Z,101214.03
2023-01-25T23:27:51.322Z,101212.22
2023-01-25T23:30:23.513Z,101203.75
2023-01-25T23:32:55.434Z,101208.00
2023-01-25T23:35:27.766Z,101164.06
2023-01-25T23:37:59.794Z,101204.53
2023-01-25T23:40:31.697Z,101162.25
2023-01-25T23:43:03.647Z,101197.63
2023-01-25T23:45:35.591Z,101160.28
2023-01-25T23:48:07.619Z,101173.06
2023-01-25T23:50:39.580Z,101180.56
2023-01-25T23:53:11.599Z,101161.19
2023-01-25T23:56:01.375Z,101149.34
2023-01-25T23:58:35.664Z,101183.13
